METAR Data
IDs: Format: Raw Decoded Include TAF

Data at: 1516 UTC 10 Aug 2022

KAPC 101454Z 00000KT 10SM CLR 15/13 A3006 RMK AO2 SLP170 T01500133 52016
KAPC 101354Z 30004KT 10SM CLR 13/13 A3004 RMK AO2 SLP165 T01330128
KAPC 101254Z AUTO 00000KT 10SM CLR 14/13 A3003 RMK AO2 SLP160 T01390128
KAPC 101154Z AUTO 32005KT 10SM CLR 14/13 A3001 RMK AO2 RAE40 SLP155 P0000 60000 T01440133 10167 20139 53001
KAPC 101054Z AUTO 26010KT 10SM -RA CLR 16/14 A3001 RMK AO2 SLP152 P0000 T01560139
KAPC 100954Z AUTO 25010KT 10SM -RA CLR 16/14 A3001 RMK AO2 SLP154 P0000 T01560144
KAPC 100854Z AUTO 26011KT 10SM -RA CLR 16/14 A3001 RMK AO2 SLP153 P0000 60000 T01610144 50002
KAPC 100754Z AUTO 26010KT 10SM -RA CLR 16/14 A3001 RMK AO2 SLP154 P0000 T01610139 402830133
KAPC 100654Z AUTO 25011KT 10SM -RA CLR 17/14 A3001 RMK AO2 SLP154 P0000 T01670139
KAPC 100554Z AUTO 24011KT 10SM -RA CLR 17/14 A3000 RMK AO2 SLP151 P0000 60000 T01670139 10256 20167 51017
KAPC 100454Z AUTO 24010KT 10SM -RA CLR 17/13 A2999 RMK AO2 SLP148 P0000 T01720133
KAPC 100354Z AUTO 25013KT 10SM -RA CLR 18/13 A2997 RMK AO2 SLP139 P0000 T01830133
KAPC 100254Z AUTO 27016KT 10SM -RA CLR 20/13 A2995 RMK AO2 RAB48 SLP135 P0000 60000 T02000128 53006
KAPC 100154Z 27016KT 10SM CLR 22/13 A2994 RMK AO2 SLP130 T02220128
KAPC 100054Z 26020KT 10SM CLR 24/13 A2994 RMK AO2 SLP130 T02390128
KAPC 092354Z 28018KT 10SM CLR 26/13 A2993 RMK AO2 SLP128 T02560128 10283 20233 56008
KAPC 092254Z 27017G23KT 10SM CLR 28/12 A2993 RMK AO2 SLP128 T02830117
KAPC 092154Z 20013KT 10SM CLR 27/14 A2995 RMK AO2 SLP133 T02670144
KAPC 092054Z 21015KT 10SM CLR 26/14 A2996 RMK AO2 SLP137 T02610144 58005
KAPC 091954Z 20015KT 10SM CLR 26/15 A2997 RMK AO2 SLP139 T02560150
KAPC 091854Z 21013KT 10SM CLR 24/15 A2998 RMK AO2 WSHFT 1829 SLP142 T02440150
KAPC 091849Z 21012KT 10SM CLR 24/14 A2998 RMK AO2 WSHFT 1829
KAPC 091754Z 27010KT 10SM CLR 24/13 A2998 RMK AO2 SLP142 60000 T02390133 10239 20133 50000
KAPC 091654Z 27011KT 10SM CLR 22/13 A2998 RMK AO2 SLP143 T02170133
KAPC 091554Z 26008KT 10SM CLR 18/13 A2998 RMK AO2 RAE1456 SLP144 P0000 T01830133
KAPC 091454Z COR 26008KT 10SM CLR 16/14 A2998 RMK AO2 RAB07 SLP142 P0000 60000 T01610139 51011
KAPC 091354Z 28006KT 10SM CLR 14/12 A2997 RMK AO2 SLP139 T01390122
KAPC 091254Z 28005KT 10SM CLR 14/12 A2995 RMK AO2 SLP134 T01390122
KAPC 091154Z 27009KT 10SM CLR 14/13 A2994 RMK AO2 SLP131 T01440128 10167 20139 56002
KAPC 091054Z 26007KT 10SM CLR 14/13 A2994 RMK AO2 SLP131 T01440128
KAPC 090954Z 25008KT 10SM CLR 15/13 A2995 RMK AO2 SLP132 T01500133
KAPC 090854Z 25009KT 10SM CLR 16/13 A2995 RMK AO2 SLP132 T01560133 58002
KAPC 090754Z 24008KT 10SM CLR 16/14 A2996 RMK AO2 SLP136 T01560139 402890106
KAPC 090654Z 10SM CLR 16/13 A2996 RMK AO2 SLP135 T01560133
KAPC 090554Z 24005KT 10SM CLR 17/13 A2995 RMK AO2 SLP134 T01670133 10267 20167 51008
KAPC 090454Z 25009KT 10SM CLR 17/13 A2995 RMK AO2 SLP134 T01720133
KAPC 090354Z 26009KT 10SM CLR 18/13 A2994 RMK AO2 SLP130 T01780133